createdAt,value
2018-02-05T00:13:28.417Z,1.80
2018-02-05T00:33:14.484Z,1.70
2018-02-05T00:35:42.046Z,1.70
2018-02-05T00:38:09.574Z,1.60
2018-02-05T01:00:47.476Z,1.70
2018-02-05T01:03:14.979Z,1.60
2018-02-05T01:05:42.600Z,1.60
2018-02-05T01:08:10.115Z,1.50
2018-02-05T01:10:38.407Z,1.40
2018-02-05T01:13:06.699Z,1.40
2018-02-05T01:32:52.446Z,1.50
2018-02-05T01:35:19.952Z,1.60
2018-02-05T01:37:48.260Z,1.80
2018-02-05T01:40:15.770Z,1.80
2018-02-05T01:42:43.304Z,2.00
2018-02-05T01:45:10.836Z,2.00
2018-02-05T01:47:38.362Z,2.00
2018-02-05T02:10:17.814Z,2.00
2018-02-05T02:41:35.254Z,1.90
2018-02-05T02:44:02.779Z,2.00
2018-02-05T02:46:30.342Z,1.90
2018-02-05T02:48:57.857Z,1.90
2018-02-05T02:51:25.391Z,1.80
2018-02-05T03:11:10.810Z,1.70
2018-02-05T03:13:39.095Z,1.80
2018-02-05T03:16:07.441Z,1.90
2018-02-05T03:18:35.018Z,2.00
2018-02-05T03:21:03.328Z,1.80
2018-02-05T03:23:30.840Z,1.70
2018-02-05T03:25:58.366Z,1.70
2018-02-05T03:45:44.694Z,1.20
2018-02-05T03:48:12.229Z,1.20
2018-02-05T03:50:39.760Z,1.20
2018-02-05T03:53:08.045Z,1.20
2018-02-05T03:55:35.554Z,1.20
2018-02-05T03:58:03.079Z,1.30
2018-02-05T04:00:30.639Z,1.10
2018-02-05T04:02:58.172Z,1.20
2018-02-05T04:05:25.695Z,1.10
2018-02-05T04:07:53.215Z,1.20
2018-02-05T04:10:20.729Z,1.20
2018-02-05T04:12:48.254Z,1.20
2018-02-05T04:15:15.789Z,1.30
2018-02-05T04:17:43.317Z,1.30
2018-02-05T04:20:10.852Z,1.50
2018-02-05T04:42:50.514Z,0.80
2018-02-05T04:45:18.049Z,0.70
2018-02-05T04:47:45.570Z,0.80
2018-02-05T04:50:13.115Z,0.60
2018-02-05T04:52:40.785Z,0.50
2018-02-05T04:55:08.302Z,0.50
2018-02-05T05:14:52.490Z,0.50
2018-02-05T05:17:20.086Z,0.50
2018-02-05T05:19:47.599Z,0.60
2018-02-05T05:22:15.121Z,0.60
2018-02-05T05:24:42.658Z,0.70
2018-02-05T05:47:23.094Z,0.60
2018-02-05T05:49:50.603Z,0.50
2018-02-05T05:52:18.179Z,0.60
2018-02-05T05:54:45.804Z,0.60
2018-02-05T05:57:13.332Z,0.60
2018-02-05T05:59:40.833Z,0.70
2018-02-05T06:02:08.373Z,0.90
2018-02-05T06:04:35.876Z,0.80
2018-02-05T06:07:03.386Z,0.70
2018-02-05T06:09:30.900Z,0.60
2018-02-05T06:11:58.478Z,0.50
2018-02-05T06:14:25.967Z,0.50
2018-02-05T06:16:53.482Z,0.50
2018-02-05T06:19:21.014Z,0.40
2018-02-05T06:21:48.540Z,0.40
2018-02-05T06:24:16.060Z,0.40
2018-02-05T06:26:43.586Z,0.30
2018-02-05T06:29:11.113Z,0.30
2018-02-05T06:31:38.635Z,0.30
2018-02-05T06:34:07.015Z,0.30
2018-02-05T06:36:34.560Z,0.30
2018-02-05T06:39:02.076Z,0.30
2018-02-05T06:41:29.601Z,0.40
2018-02-05T06:43:57.116Z,0.40
2018-02-05T06:46:24.666Z,0.40
2018-02-05T06:48:52.153Z,0.40
2018-02-05T06:51:31.528Z,0.40
2018-02-05T06:54:10.772Z,0.50
2018-02-05T06:56:38.299Z,0.50
2018-02-05T06:59:05.827Z,0.60
2018-02-05T07:01:33.341Z,0.60
2018-02-05T07:04:01.619Z,0.70
2018-02-05T07:06:29.899Z,0.70
2018-02-05T07:08:58.180Z,0.80
2018-02-05T07:11:25.695Z,0.80
2018-02-05T07:13:53.224Z,0.90
2018-02-05T07:16:20.732Z,0.80
2018-02-05T07:18:48.242Z,0.70
2018-02-05T07:21:15.792Z,0.70
2018-02-05T07:23:43.358Z,0.70
2018-02-05T07:26:10.887Z,0.70
2018-02-05T07:28:38.408Z,0.70
2018-02-05T07:31:05.976Z,0.70
2018-02-05T07:33:33.499Z,0.90
2018-02-05T07:56:12.583Z,1.50
2018-02-05T07:58:40.082Z,1.60
2018-02-05T08:18:27.576Z,1.90
2018-02-05T08:38:14.584Z,2.20
2018-02-05T08:57:59.075Z,2.00
2018-02-05T09:00:26.592Z,1.90
2018-02-05T09:02:54.094Z,2.00
2018-02-05T09:05:21.611Z,2.00
2018-02-05T09:07:49.160Z,2.10
2018-02-05T09:10:16.687Z,2.10
2018-02-05T09:12:44.389Z,2.00
2018-02-05T09:15:11.889Z,1.70
2018-02-05T09:17:39.401Z,1.80
2018-02-05T09:20:07.003Z,1.80
2018-02-05T09:22:34.533Z,1.90
2018-02-05T09:25:02.047Z,2.10
2018-02-05T09:27:29.569Z,2.00
2018-02-05T09:29:57.065Z,1.80
2018-02-05T09:32:24.583Z,1.60
2018-02-05T09:34:52.964Z,1.60
2018-02-05T09:37:20.497Z,1.60
2018-02-05T09:39:48.056Z,1.60
2018-02-05T09:42:15.634Z,1.70
2018-02-05T09:44:44.049Z,1.80
2018-02-05T09:47:11.577Z,1.80
2018-02-05T09:49:39.873Z,1.80
2018-02-05T09:52:08.135Z,1.70
2018-02-05T09:54:35.657Z,1.70
2018-02-05T09:57:03.192Z,1.80
2018-02-05T09:59:30.710Z,1.80
2018-02-05T10:01:59.041Z,1.80
2018-02-05T10:04:26.559Z,1.90
2018-02-05T10:06:54.062Z,1.90
2018-02-05T10:09:21.611Z,2.00
2018-02-05T10:11:49.160Z,2.00
2018-02-05T10:14:16.686Z,2.00
2018-02-05T10:16:44.956Z,2.20
2018-02-05T10:19:13.230Z,2.50
2018-02-05T10:21:40.773Z,2.40
2018-02-05T10:24:08.299Z,2.40
2018-02-05T10:26:35.848Z,2.50
2018-02-05T10:29:03.459Z,2.80
2018-02-05T10:31:30.968Z,3.40
2018-02-05T10:33:58.494Z,4.50
2018-02-05T10:36:26.071Z,6.00
2018-02-05T10:38:54.390Z,8.90
2018-02-05T10:41:21.887Z,8.80
2018-02-05T10:43:49.404Z,10.60
2018-02-05T10:46:22.770Z,11.70
2018-02-05T10:48:50.302Z,12.30
2018-02-05T10:51:21.951Z,13.50
2018-02-05T10:53:49.508Z,13.50
2018-02-05T10:56:17.013Z,14.40
2018-02-05T10:58:44.522Z,13.20
2018-02-05T11:01:12.031Z,14.10
2018-02-05T11:03:39.563Z,15.30
2018-02-05T11:06:07.834Z,14.10
2018-02-05T11:08:36.111Z,15.30
2018-02-05T11:11:04.402Z,16.50
2018-02-05T11:13:32.717Z,16.80
2018-02-05T11:16:00.249Z,16.80
2018-02-05T11:18:27.767Z,17.40
2018-02-05T11:20:55.263Z,18.10
2018-02-05T11:23:22.763Z,17.50
2018-02-05T11:25:50.274Z,17.60
2018-02-05T11:28:17.831Z,17.40
2018-02-05T11:30:46.174Z,15.90
2018-02-05T11:33:13.735Z,15.90
2018-02-05T11:35:41.235Z,14.90
2018-02-05T11:38:09.500Z,13.90
2018-02-05T11:40:37.785Z,12.60
2018-02-05T11:43:06.068Z,11.20
2018-02-05T11:45:34.414Z,10.60
2018-02-05T11:48:01.964Z,10.60
2018-02-05T11:50:29.563Z,9.00
2018-02-05T11:52:57.056Z,8.20
2018-02-05T11:55:24.577Z,7.50
2018-02-05T11:57:52.853Z,6.70
2018-02-05T12:00:21.152Z,6.30
2018-02-05T12:02:48.652Z,6.30
2018-02-05T12:05:16.290Z,6.10
2018-02-05T12:07:43.809Z,5.80
2018-02-05T12:10:11.334Z,5.20
2018-02-05T12:12:38.835Z,5.00
2018-02-05T12:15:07.120Z,5.00
2018-02-05T12:17:34.668Z,5.00
2018-02-05T12:20:02.187Z,4.50
2018-02-05T12:22:29.706Z,4.30
2018-02-05T12:24:57.229Z,4.20
2018-02-05T12:27:24.747Z,4.00
2018-02-05T12:29:52.268Z,4.00
2018-02-05T12:32:19.808Z,3.70
2018-02-05T12:34:47.306Z,3.80
2018-02-05T12:37:14.861Z,3.70
2018-02-05T12:39:42.410Z,3.70
2018-02-05T12:42:09.926Z,3.50
2018-02-05T12:44:37.451Z,3.10
2018-02-05T12:47:04.947Z,3.20
2018-02-05T12:49:32.513Z,3.20
2018-02-05T12:51:59.984Z,3.20
2018-02-05T12:54:27.512Z,3.30
2018-02-05T12:56:55.071Z,3.20
2018-02-05T12:59:22.591Z,2.90
2018-02-05T13:02:08.998Z,2.90
2018-02-05T13:04:51.393Z,2.90
2018-02-05T13:07:19.697Z,2.80
2018-02-05T13:09:47.345Z,2.80
2018-02-05T13:12:14.859Z,2.60
2018-02-05T13:14:42.378Z,2.60
2018-02-05T13:17:09.892Z,2.70
2018-02-05T13:19:38.174Z,2.70
2018-02-05T13:22:05.709Z,2.70
2018-02-05T13:24:33.457Z,2.60
2018-02-05T13:27:01.003Z,2.70
2018-02-05T13:29:28.530Z,2.80
2018-02-05T13:31:56.852Z,2.80
2018-02-05T13:34:24.445Z,2.80
2018-02-05T13:36:51.978Z,2.80
2018-02-05T13:39:19.475Z,2.80
2018-02-05T13:41:47.743Z,2.80
2018-02-05T13:44:15.358Z,2.80
2018-02-05T13:46:42.908Z,2.70
2018-02-05T13:49:10.428Z,2.60
2018-02-05T13:51:38.688Z,2.30
2018-02-05T13:54:06.203Z,2.30
2018-02-05T13:56:33.763Z,2.40
2018-02-05T13:59:01.294Z,2.40
2018-02-05T14:01:29.615Z,2.30
2018-02-05T14:03:57.255Z,2.30
2018-02-05T14:06:24.773Z,2.40
2018-02-05T14:08:52.307Z,2.40
2018-02-05T14:11:19.960Z,2.30
2018-02-05T14:13:47.469Z,2.30
2018-02-05T14:16:15.755Z,2.20
2018-02-05T14:18:44.072Z,2.20
2018-02-05T14:21:11.617Z,2.20
2018-02-05T14:23:39.924Z,2.10
2018-02-05T14:26:07.430Z,2.00
2018-02-05T14:28:35.692Z,2.00
2018-02-05T14:31:03.193Z,2.00
2018-02-05T14:33:30.685Z,2.10
2018-02-05T14:35:58.235Z,2.00
2018-02-05T14:38:25.843Z,2.00
2018-02-05T14:40:53.387Z,2.00
2018-02-05T14:43:21.703Z,1.90
2018-02-05T14:45:50.088Z,1.90
2018-02-05T14:48:17.644Z,1.90
2018-02-05T14:50:45.229Z,1.90
2018-02-05T14:53:12.773Z,1.90
2018-02-05T14:55:40.397Z,1.80
2018-02-05T14:58:08.696Z,1.80
2018-02-05T15:00:37.469Z,1.80
2018-02-05T15:03:04.979Z,1.80
2018-02-05T15:05:32.581Z,1.80
2018-02-05T15:08:00.259Z,1.90
2018-02-05T15:10:27.810Z,1.80
2018-02-05T15:12:55.366Z,1.80
2018-02-05T15:15:22.936Z,1.80
2018-02-05T15:17:51.208Z,1.70
2018-02-05T15:20:19.578Z,1.70
2018-02-05T15:22:47.089Z,1.70
2018-02-05T15:25:14.682Z,1.60
2018-02-05T15:27:42.292Z,1.60
2018-02-05T15:30:09.795Z,1.50
2018-02-05T15:32:37.373Z,1.50
2018-02-05T15:35:05.704Z,1.50
2018-02-05T15:37:33.235Z,1.50
2018-02-05T15:40:00.751Z,1.50
2018-02-05T15:42:28.343Z,1.40
2018-02-05T15:44:56.705Z,1.30
2018-02-05T15:47:24.214Z,1.30
2018-02-05T15:49:51.755Z,1.40
2018-02-05T15:52:19.264Z,1.30
2018-02-05T15:54:46.901Z,1.30
2018-02-05T15:57:14.416Z,1.30
2018-02-05T15:59:42.694Z,1.10
2018-02-05T16:02:10.962Z,1.00
2018-02-05T16:04:39.238Z,1.00
2018-02-05T16:07:07.536Z,0.90
2018-02-05T16:09:35.052Z,0.90
2018-02-05T16:12:02.551Z,0.90
2018-02-05T16:14:30.098Z,0.90
2018-02-05T16:16:58.370Z,0.90
2018-02-05T16:19:26.662Z,0.80
2018-02-05T16:21:54.927Z,0.70
2018-02-05T16:24:23.297Z,0.70
2018-02-05T16:26:50.809Z,0.70
2018-02-05T16:29:18.337Z,0.80
2018-02-05T16:31:46.648Z,0.50
2018-02-05T16:34:14.194Z,0.50
2018-02-05T16:36:41.714Z,0.60
2018-02-05T16:39:09.262Z,0.60
2018-02-05T16:41:36.783Z,0.60
2018-02-05T16:44:04.327Z,0.60
2018-02-05T16:46:31.868Z,0.60
2018-02-05T16:48:59.437Z,0.70
2018-02-05T16:51:26.957Z,0.60
2018-02-05T16:53:54.506Z,0.50
2018-02-05T16:56:22.006Z,0.60
2018-02-05T16:58:50.449Z,0.50
2018-02-05T17:01:18.022Z,0.50
2018-02-05T17:03:46.312Z,0.50
2018-02-05T17:06:13.834Z,0.40
2018-02-05T17:08:41.339Z,0.40
2018-02-05T17:11:09.613Z,0.40
2018-02-05T17:13:37.911Z,0.30
2018-02-05T17:16:05.435Z,0.40
2018-02-05T17:18:32.926Z,0.40
2018-02-05T17:21:00.422Z,0.40
2018-02-05T17:23:27.954Z,0.40
2018-02-05T17:25:55.488Z,0.40
2018-02-05T17:28:22.988Z,0.40
2018-02-05T17:30:50.528Z,0.30
2018-02-05T17:33:18.152Z,0.30
2018-02-05T17:35:45.683Z,0.30
2018-02-05T17:38:13.225Z,0.20
2018-02-05T17:40:40.723Z,0.20
2018-02-05T17:43:08.241Z,0.20
2018-02-05T17:45:35.756Z,0.20
2018-02-05T17:48:03.304Z,0.10
2018-02-05T17:50:30.824Z,0.10
2018-02-05T17:52:58.323Z,0.10
2018-02-05T17:55:25.841Z,0.10
2018-02-05T17:57:53.362Z,0.10
2018-02-05T18:00:21.651Z,0.10
2018-02-05T18:02:49.936Z,0.10
2018-02-05T18:05:17.463Z,0.10
2018-02-05T18:07:44.958Z,0.20
2018-02-05T18:10:12.491Z,0.20
2018-02-05T18:12:40.768Z,0.30
2018-02-05T18:15:09.099Z,0.30
2018-02-05T18:17:36.654Z,0.30
2018-02-05T18:37:21.494Z,0.10
2018-02-05T18:57:07.534Z,-0.20
2018-02-05T19:16:52.743Z,-0.30
2018-02-05T19:56:32.536Z,-0.50
2018-02-05T20:16:19.095Z,-0.50
2018-02-05T20:36:04.570Z,-0.50
2018-02-05T20:55:51.316Z,-0.50
2018-02-05T21:15:38.189Z,-0.60
2018-02-05T21:35:23.699Z,-0.70
2018-02-05T22:15:19.997Z,-0.90
2018-02-05T22:35:07.199Z,-0.70
2018-02-05T22:54:52.848Z,-0.70
2018-02-05T23:14:40.003Z,-0.80
2018-02-05T23:17:07.559Z,-0.80
2018-02-05T23:19:35.138Z,-0.80
2018-02-05T23:22:02.657Z,-0.80
2018-02-05T23:24:30.188Z,-0.80
2018-02-05T23:26:57.694Z,-0.80
2018-02-05T23:29:25.226Z,-0.90
2018-02-05T23:49:12.473Z,-0.90
